Time;durP1;ratioP1;P1;durP2;ratioP2;P2;SDS_P1;SDS_P2;PMS_P1;PMS_P2;Temp;Humidity;BMP_temperature;BMP_pressure;BME280_temperature;BME280_humidity;BME280_pressure;Samples;Min_cycle;Max_cycle;Signal;HPM_P1;HPM_P2
2024/03/20 00:00:54;;;;;;;;;28.25;25.25;;;;;;;;5048217;28;10909;-86
2024/03/20 00:03:21;;;;;;;;;30.25;28.25;;;;;;;;5049288;28;11134;-86
2024/03/20 00:05:49;;;;;;;;;30.75;30.25;;;;;;;;5049038;28;11583;-82
2024/03/20 00:08:20;;;;;;;;;25.00;24.75;;;;;;;;5049209;28;11145;-88
2024/03/20 00:10:47;;;;;;;;;29.50;27.50;;;;;;;;5048837;28;11196;-88
2024/03/20 00:13:19;;;;;;;;;28.50;26.50;;;;;;;;5049035;28;11301;-84
2024/03/20 00:15:48;;;;;;;;;25.25;25.25;;;;;;;;5049172;28;11309;-85
2024/03/20 00:18:15;;;;;;;;;37.00;30.75;;;;;;;;5050043;28;11255;-86
2024/03/20 00:20:43;;;;;;;;;24.50;24.50;;;;;;;;5051050;28;11492;-85
2024/03/20 00:23:12;;;;;;;;;22.75;22.75;;;;;;;;5051934;28;11374;-84
2024/03/20 00:25:41;;;;;;;;;33.00;29.25;;;;;;;;5056977;28;11153;-88
2024/03/20 00:28:14;;;;;;;;;28.00;26.50;;;;;;;;5058153;28;11474;-84
2024/03/20 00:30:45;;;;;;;;;40.50;34.25;;;;;;;;5054624;28;11443;-88
2024/03/20 00:33:12;;;;;;;;;28.50;27.50;;;;;;;;5057268;28;11334;-83
2024/03/20 00:35:45;;;;;;;;;31.00;27.00;;;;;;;;5055202;28;11341;-83
2024/03/20 00:38:15;;;;;;;;;31.25;28.75;;;;;;;;5054138;28;11309;-86
2024/03/20 00:40:45;;;;;;;;;30.50;29.00;;;;;;;;5050242;28;11097;-91
2024/03/20 00:43:21;;;;;;;;;29.50;26.50;;;;;;;;5052138;28;11105;-90
2024/03/20 00:45:48;;;;;;;;;28.75;26.75;;;;;;;;5056683;28;11081;-88
2024/03/20 00:48:16;;;;;;;;;21.00;19.50;;;;;;;;5049461;28;10912;-87
2024/03/20 00:50:46;;;;;;;;;22.25;22.25;;;;;;;;5045660;28;10974;-87
2024/03/20 00:53:18;;;;;;;;;27.75;25.50;;;;;;;;5051463;28;11642;-91
2024/03/20 00:55:49;;;;;;;;;27.75;24.50;;;;;;;;5051819;28;11713;-87
2024/03/20 00:58:16;;;;;;;;;27.25;25.00;;;;;;;;5051308;28;11143;-87
2024/03/20 01:00:46;;;;;;;;;25.75;24.50;;;;;;;;5051684;28;10849;-88
2024/03/20 01:03:14;;;;;;;;;29.50;25.00;;;;;;;;5051475;28;11001;-84
2024/03/20 01:05:42;;;;;;;;;21.25;20.00;;;;;;;;5053664;28;10972;-91
2024/03/20 01:08:09;;;;;;;;;28.25;22.75;;;;;;;;5054621;28;10999;-88
2024/03/20 01:10:39;;;;;;;;;21.50;20.25;;;;;;;;5054153;28;11030;-89
2024/03/20 01:13:08;;;;;;;;;20.75;19.25;;;;;;;;5053361;28;10909;-88
2024/03/20 01:15:36;;;;;;;;;24.75;24.75;;;;;;;;5051760;28;10978;-83
2024/03/20 01:18:03;;;;;;;;;23.25;21.50;;;;;;;;5050523;28;10977;-88
2024/03/20 01:20:31;;;;;;;;;28.50;24.00;;;;;;;;5053515;28;10830;-86
2024/03/20 01:22:59;;;;;;;;;20.75;19.50;;;;;;;;5061905;28;10990;-82
2024/03/20 01:25:26;;;;;;;;;24.50;20.25;;;;;;;;5066378;28;10860;-87
2024/03/20 01:27:53;;;;;;;;;20.25;18.50;;;;;;;;5040424;28;10800;-90
2024/03/20 01:30:22;;;;;;;;;18.25;16.00;;;;;;;;5050499;28;10736;-83
2024/03/20 01:32:49;;;;;;;;;13.50;13.50;;;;;;;;5051940;28;10753;-87
2024/03/20 01:35:20;;;;;;;;;17.00;17.00;;;;;;;;5052152;28;10906;-86
2024/03/20 01:37:47;;;;;;;;;15.75;15.75;;;;;;;;5052729;28;10760;-87
2024/03/20 01:40:14;;;;;;;;;15.25;13.50;;;;;;;;5050931;28;10878;-88
2024/03/20 01:42:42;;;;;;;;;15.50;15.50;;;;;;;;5050802;28;10931;-86
2024/03/20 01:45:13;;;;;;;;;21.50;16.75;;;;;;;;5050481;28;11004;-87
2024/03/20 01:47:42;;;;;;;;;16.50;16.50;;;;;;;;5051212;28;11132;-89
2024/03/20 01:50:10;;;;;;;;;23.00;21.25;;;;;;;;5050509;28;10985;-90
2024/03/20 01:52:49;;;;;;;;;20.00;20.00;;;;;;;;5033654;28;11200;-89
2024/03/20 01:55:16;;;;;;;;;20.25;17.75;;;;;;;;5052923;28;11046;-91
2024/03/20 01:57:44;;;;;;;;;19.75;17.75;;;;;;;;5054153;28;10986;-90
2024/03/20 02:00:13;;;;;;;;;19.00;19.00;;;;;;;;5050660;28;11193;-88
2024/03/20 02:02:44;;;;;;;;;19.25;18.75;;;;;;;;5052491;28;11197;-92
2024/03/20 02:05:13;;;;;;;;;20.75;18.00;;;;;;;;5051711;28;11941;-89
2024/03/20 02:07:40;;;;;;;;;16.25;16.25;;;;;;;;5051962;28;11150;-88
2024/03/20 02:10:09;;;;;;;;;16.50;15.25;;;;;;;;5054661;28;11165;-86
2024/03/20 02:12:36;;;;;;;;;16.50;16.50;;;;;;;;5055724;28;11313;-83
2024/03/20 02:15:08;;;;;;;;;16.75;16.25;;;;;;;;5057165;28;11476;-83
2024/03/20 02:17:37;;;;;;;;;18.50;18.50;;;;;;;;5056151;28;11326;-86
2024/03/20 02:20:08;;;;;;;;;19.25;15.50;;;;;;;;5055340;28;11589;-85
2024/03/20 02:22:41;;;;;;;;;14.00;14.00;;;;;;;;5055248;28;11574;-89
2024/03/20 02:25:09;;;;;;;;;21.50;18.25;;;;;;;;5054646;28;11483;-85
2024/03/20 02:27:36;;;;;;;;;20.75;20.75;;;;;;;;5051358;28;11515;-87
2024/03/20 02:30:05;;;;;;;;;16.25;16.25;;;;;;;;5049894;28;11573;-88
2024/03/20 02:32:32;;;;;;;;;16.00;16.00;;;;;;;;5050040;28;11485;-89
2024/03/20 02:35:02;;;;;;;;;18.00;18.00;;;;;;;;5049735;28;11592;-87
2024/03/20 02:37:29;;;;;;;;;18.00;18.00;;;;;;;;5050408;28;11566;-90
2024/03/20 02:39:58;;;;;;;;;25.50;23.50;;;;;;;;5051178;28;12242;-89
2024/03/20 02:42:26;;;;;;;;;25.25;23.00;;;;;;;;5049680;28;11516;-86
2024/03/20 02:44:53;;;;;;;;;21.50;21.50;;;;;;;;5049535;28;12291;-90
2024/03/20 02:47:21;;;;;;;;;21.75;20.25;;;;;;;;5048201;28;11533;-89
2024/03/20 02:49:49;;;;;;;;;25.00;21.25;;;;;;;;5049555;28;11502;-91
2024/03/20 02:52:18;;;;;;;;;21.25;20.00;;;;;;;;5048426;28;12267;-87
2024/03/20 02:54:45;;;;;;;;;16.00;15.75;;;;;;;;5050279;28;11499;-89
2024/03/20 02:57:13;;;;;;;;;13.25;13.25;;;;;;;;5052305;28;11573;-86
2024/03/20 02:59:41;;;;;;;;;21.00;21.00;;;;;;;;5056310;28;11465;-84
2024/03/20 03:02:09;;;;;;;;;18.25;18.25;;;;;;;;5051660;28;12271;-86
2024/03/20 03:04:39;;;;;;;;;16.50;16.50;;;;;;;;5049683;28;11615;-87
2024/03/20 03:07:07;;;;;;;;;24.00;22.00;;;;;;;;5049767;28;11510;-86
2024/03/20 03:09:34;;;;;;;;;20.00;16.50;;;;;;;;5049035;28;11698;-88
2024/03/20 03:12:03;;;;;;;;;16.00;16.00;;;;;;;;5049717;28;11490;-89
2024/03/20 03:14:32;;;;;;;;;20.75;20.75;;;;;;;;5049322;28;11574;-89
2024/03/20 03:16:59;;;;;;;;;19.25;17.75;;;;;;;;5049792;28;11661;-87
2024/03/20 03:19:26;;;;;;;;;22.75;22.25;;;;;;;;5049348;28;12384;-87
2024/03/20 03:21:54;;;;;;;;;19.50;19.50;;;;;;;;5048845;28;11480;-87
2024/03/20 03:24:21;;;;;;;;;24.25;22.50;;;;;;;;5051791;28;11505;-89
2024/03/20 03:26:49;;;;;;;;;22.50;20.75;;;;;;;;5049743;28;11569;-88
2024/03/20 03:29:17;;;;;;;;;23.50;19.75;;;;;;;;5049835;28;11503;-87
2024/03/20 03:31:45;;;;;;;;;22.00;19.25;;;;;;;;5048904;28;11592;-88
2024/03/20 03:34:12;;;;;;;;;17.00;15.25;;;;;;;;5049566;28;11594;-86
2024/03/20 03:36:40;;;;;;;;;16.50;16.25;;;;;;;;5048349;28;11629;-85
2024/03/20 03:39:08;;;;;;;;;17.50;17.50;;;;;;;;5048622;28;11516;-86
2024/03/20 03:41:35;;;;;;;;;17.00;17.00;;;;;;;;5046822;28;12265;-86
2024/03/20 03:44:03;;;;;;;;;18.50;17.50;;;;;;;;5049551;28;11591;-88
2024/03/20 03:46:30;;;;;;;;;13.75;12.00;;;;;;;;5049057;28;11441;-85
2024/03/20 03:48:59;;;;;;;;;20.50;20.50;;;;;;;;5048711;28;11478;-87
2024/03/20 03:51:27;;;;;;;;;19.50;16.75;;;;;;;;5048776;28;11501;-89
2024/03/20 03:53:54;;;;;;;;;13.75;13.75;;;;;;;;5049040;28;11465;-84
2024/03/20 03:56:22;;;;;;;;;15.75;14.50;;;;;;;;5052349;28;11532;-84
2024/03/20 03:58:49;;;;;;;;;18.75;11.50;;;;;;;;5053016;28;11492;-85
2024/03/20 04:01:16;;;;;;;;;11.25;11.25;;;;;;;;5057396;28;11428;-84
2024/03/20 04:03:43;;;;;;;;;19.50;16.00;;;;;;;;5060797;28;11566;-89
2024/03/20 04:06:12;;;;;;;;;25.25;21.75;;;;;;;;5053369;28;11642;-87
2024/03/20 04:08:40;;;;;;;;;19.50;19.50;;;;;;;;5060329;28;11585;-86
2024/03/20 04:11:08;;;;;;;;;18.25;14.25;;;;;;;;5056199;28;11507;-89
2024/03/20 04:13:35;;;;;;;;;15.00;13.75;;;;;;;;5059863;28;11499;-84
2024/03/20 04:16:02;;;;;;;;;18.00;16.00;;;;;;;;5062647;28;11602;-90
2024/03/20 04:18:29;;;;;;;;;15.00;14.50;;;;;;;;5053800;28;11549;-90
2024/03/20 04:20:57;;;;;;;;;19.25;16.50;;;;;;;;5054052;28;11482;-91
2024/03/20 04:23:25;;;;;;;;;15.00;15.00;;;;;;;;5054082;28;11538;-88
2024/03/20 04:25:53;;;;;;;;;16.50;16.50;;;;;;;;5053976;28;11498;-90
2024/03/20 04:28:20;;;;;;;;;22.50;20.00;;;;;;;;5052946;28;11569;-90
2024/03/20 04:30:47;;;;;;;;;19.00;17.00;;;;;;;;5052071;28;12324;-91
2024/03/20 04:33:14;;;;;;;;;16.50;16.50;;;;;;;;5052597;28;11488;-91
2024/03/20 04:35:42;;;;;;;;;17.25;17.25;;;;;;;;5052867;28;11486;-88
2024/03/20 04:38:09;;;;;;;;;21.00;18.50;;;;;;;;5052877;28;11588;-91
2024/03/20 04:40:39;;;;;;;;;19.75;16.25;;;;;;;;5053157;28;11593;-90
2024/03/20 04:43:06;;;;;;;;;17.25;15.50;;;;;;;;5055563;28;11472;-87
2024/03/20 04:45:36;;;;;;;;;14.75;14.75;;;;;;;;5050906;28;11551;-91
2024/03/20 04:48:04;;;;;;;;;23.75;19.75;;;;;;;;5064113;28;11504;-92
2024/03/20 04:50:31;;;;;;;;;18.00;18.00;;;;;;;;5053970;28;11504;-88
2024/03/20 04:52:58;;;;;;;;;16.00;16.00;;;;;;;;5052366;28;11600;-91
2024/03/20 04:55:25;;;;;;;;;20.50;17.75;;;;;;;;5045992;28;11479;-90
2024/03/20 04:57:54;;;;;;;;;17.25;15.50;;;;;;;;5050465;28;11496;-91
2024/03/20 05:00:21;;;;;;;;;16.00;13.25;;;;;;;;5050348;28;11643;-91
2024/03/20 05:02:49;;;;;;;;;18.75;17.25;;;;;;;;5051689;28;11598;-92
2024/03/20 05:05:19;;;;;;;;;20.75;18.50;;;;;;;;5052868;28;11614;-85
2024/03/20 05:07:46;;;;;;;;;17.75;15.25;;;;;;;;5045780;28;11666;-91
2024/03/20 05:10:14;;;;;;;;;22.50;16.50;;;;;;;;5050641;28;11600;-88
2024/03/20 05:12:42;;;;;;;;;19.25;19.25;;;;;;;;5050512;28;11533;-87
2024/03/20 05:15:11;;;;;;;;;18.75;17.50;;;;;;;;5051112;28;11765;-87
2024/03/20 05:17:38;;;;;;;;;22.75;21.50;;;;;;;;5050412;28;11572;-89
2024/03/20 05:20:10;;;;;;;;;21.75;18.00;;;;;;;;5051009;28;11649;-80
2024/03/20 05:22:37;;;;;;;;;24.50;24.00;;;;;;;;5051372;28;11601;-87
2024/03/20 05:25:10;;;;;;;;;18.50;18.50;;;;;;;;5050679;28;11631;-88
2024/03/20 05:27:37;;;;;;;;;22.00;22.00;;;;;;;;5051346;28;11560;-87
2024/03/20 05:30:04;;;;;;;;;23.25;20.50;;;;;;;;5048468;28;11552;-88
2024/03/20 05:32:36;;;;;;;;;22.75;22.75;;;;;;;;5050623;28;11554;-88
2024/03/20 05:35:03;;;;;;;;;27.50;25.25;;;;;;;;5049834;28;11539;-82
2024/03/20 05:37:31;;;;;;;;;26.75;24.50;;;;;;;;5050735;28;11611;-85
2024/03/20 05:39:59;;;;;;;;;31.25;28.50;;;;;;;;5050591;28;11531;-84
2024/03/20 05:42:26;;;;;;;;;25.25;24.50;;;;;;;;5050317;28;11655;-80
2024/03/20 05:44:52;;;;;;;;;28.25;28.25;;;;;;;;5050689;28;11621;-86
2024/03/20 05:47:19;;;;;;;;;31.75;26.00;;;;;;;;5053272;28;12352;-85
2024/03/20 05:49:50;;;;;;;;;42.25;34.25;;;;;;;;5054598;28;11561;-86
2024/03/20 05:52:18;;;;;;;;;35.25;32.25;;;;;;;;5054856;28;11607;-85
2024/03/20 05:54:44;;;;;;;;;38.00;35.25;;;;;;;;5053981;28;11729;-87
2024/03/20 05:57:12;;;;;;;;;31.25;30.00;;;;;;;;5051538;28;11893;-83
2024/03/20 05:59:38;;;;;;;;;39.00;35.25;;;;;;;;5054794;28;11543;-82
2024/03/20 06:02:08;;;;;;;;;28.75;28.75;;;;;;;;5053981;28;11588;-87
2024/03/20 06:04:52;;;;;;;;;32.00;32.00;;;;;;;;5055483;28;11533;-85
2024/03/20 06:07:21;;;;;;;;;35.00;31.25;;;;;;;;5053036;28;11733;-78
2024/03/20 06:09:47;;;;;;;;;35.50;31.00;;;;;;;;5049765;28;11559;-80
2024/03/20 06:12:16;;;;;;;;;22.50;22.50;;;;;;;;5049338;28;11584;-76
2024/03/20 06:14:43;;;;;;;;;25.25;23.75;;;;;;;;5050288;28;11479;-76
2024/03/20 06:17:11;;;;;;;;;26.50;25.00;;;;;;;;5049713;28;11733;-78
2024/03/20 06:19:40;;;;;;;;;25.00;24.50;;;;;;;;5049590;28;11631;-78
2024/03/20 06:22:10;;;;;;;;;30.50;27.00;;;;;;;;5048702;28;11539;-78
2024/03/20 06:24:38;;;;;;;;;28.75;26.75;;;;;;;;5049469;28;11552;-78
2024/03/20 06:27:15;;;;;;;;;28.00;26.00;;;;;;;;5045603;28;11590;-79
2024/03/20 06:29:50;;;;;;;;;24.50;22.00;;;;;;;;5049628;28;11560;-77
2024/03/20 06:32:44;;;;;;;;;25.50;25.50;;;;;;;;5050725;28;11530;-76
2024/03/20 06:35:10;;;;;;;;;27.25;26.00;;;;;;;;5049232;28;11505;-77
2024/03/20 06:37:38;;;;;;;;;26.00;25.75;;;;;;;;5054364;28;11505;-77
2024/03/20 06:40:16;;;;;;;;;32.75;27.75;;;;;;;;5052079;28;11492;-78
2024/03/20 06:42:44;;;;;;;;;31.50;28.50;;;;;;;;5017185;28;11519;-77
2024/03/20 06:45:10;;;;;;;;;26.50;26.50;;;;;;;;5048328;28;11569;-77
2024/03/20 06:47:37;;;;;;;;;33.00;27.25;;;;;;;;5048601;28;11680;-78
2024/03/20 06:50:08;;;;;;;;;25.75;25.75;;;;;;;;5049014;28;11497;-78
2024/03/20 06:52:38;;;;;;;;;23.75;23.75;;;;;;;;5048918;28;11577;-78
2024/03/20 06:55:14;;;;;;;;;25.50;25.50;;;;;;;;5049411;28;11632;-78
2024/03/20 06:57:43;;;;;;;;;29.75;24.00;;;;;;;;5049374;28;11510;-80
2024/03/20 07:00:17;;;;;;;;;24.00;23.75;;;;;;;;5039200;28;11649;-79
2024/03/20 07:02:53;;;;;;;;;31.25;29.00;;;;;;;;5048152;28;11499;-79
2024/03/20 07:05:19;;;;;;;;;26.50;24.25;;;;;;;;5032635;28;11516;-79
2024/03/20 07:07:49;;;;;;;;;26.50;26.50;;;;;;;;5051158;28;11599;-78
2024/03/20 07:10:17;;;;;;;;;30.00;26.50;;;;;;;;5051018;28;11604;-79
2024/03/20 07:12:46;;;;;;;;;24.75;24.25;;;;;;;;5049026;28;12260;-81
2024/03/20 07:15:12;;;;;;;;;23.25;22.25;;;;;;;;5048901;28;11476;-79
2024/03/20 07:17:48;;;;;;;;;32.00;30.25;;;;;;;;5048961;28;11489;-80
2024/03/20 07:20:14;;;;;;;;;42.25;35.50;;;;;;;;5047920;28;11477;-80
2024/03/20 07:22:48;;;;;;;;;35.00;33.00;;;;;;;;5048882;28;11579;-79
2024/03/20 07:25:16;;;;;;;;;43.25;36.50;;;;;;;;5042916;28;11533;-78
2024/03/20 07:27:43;;;;;;;;;37.25;34.50;;;;;;;;5048365;28;11486;-79
2024/03/20 07:30:11;;;;;;;;;45.25;39.25;;;;;;;;5047205;28;11529;-79
2024/03/20 07:32:38;;;;;;;;;45.00;37.50;;;;;;;;5049560;28;11485;-78
2024/03/20 07:35:11;;;;;;;;;43.25;36.75;;;;;;;;5050506;28;11479;-81
2024/03/20 07:37:40;;;;;;;;;48.25;40.25;;;;;;;;5052581;28;11496;-81
2024/03/20 07:40:07;;;;;;;;;48.50;40.00;;;;;;;;5053411;28;11497;-79
2024/03/20 07:42:39;;;;;;;;;55.00;44.25;;;;;;;;5051572;28;11486;-79
2024/03/20 07:45:08;;;;;;;;;52.50;44.25;;;;;;;;5053023;28;11614;-78
2024/03/20 07:47:36;;;;;;;;;52.75;44.75;;;;;;;;5052944;28;11498;-78
2024/03/20 07:50:03;;;;;;;;;50.25;39.75;;;;;;;;5052612;28;11513;-81
2024/03/20 07:52:30;;;;;;;;;48.25;41.50;;;;;;;;5047445;28;11539;-78
2024/03/20 07:54:56;;;;;;;;;46.25;40.00;;;;;;;;5048407;28;11504;-79
2024/03/20 07:57:25;;;;;;;;;44.50;38.75;;;;;;;;5048171;28;11504;-81
2024/03/20 07:59:53;;;;;;;;;44.75;39.00;;;;;;;;5049929;28;11337;-79
2024/03/20 08:02:20;;;;;;;;;41.00;37.50;;;;;;;;5047184;28;11196;-78
2024/03/20 08:04:46;;;;;;;;;47.25;38.75;;;;;;;;5047149;28;11006;-79
2024/03/20 08:07:14;;;;;;;;;51.50;39.50;;;;;;;;5046542;28;11137;-80
2024/03/20 08:09:40;;;;;;;;;47.00;38.00;;;;;;;;5047906;28;11271;-79
2024/03/20 08:12:10;;;;;;;;;47.25;39.75;;;;;;;;5046502;28;11195;-79
2024/03/20 08:14:36;;;;;;;;;49.50;39.25;;;;;;;;5048168;28;11080;-81
2024/03/20 08:17:06;;;;;;;;;53.00;44.00;;;;;;;;5048132;28;11010;-80
2024/03/20 08:19:34;;;;;;;;;53.25;44.00;;;;;;;;5050649;28;11207;-82
2024/03/20 08:22:01;;;;;;;;;54.00;42.25;;;;;;;;5051422;28;11145;-79
2024/03/20 08:24:30;;;;;;;;;52.25;43.50;;;;;;;;5049884;28;11108;-81
2024/03/20 08:26:58;;;;;;;;;47.00;41.25;;;;;;;;5048107;28;11185;-84
2024/03/20 08:29:24;;;;;;;;;42.00;35.00;;;;;;;;5047053;28;11723;-77
2024/03/20 08:31:51;;;;;;;;;48.25;41.75;;;;;;;;5045870;28;11720;-76
2024/03/20 08:34:19;;;;;;;;;43.00;38.50;;;;;;;;5046805;28;11006;-78
2024/03/20 08:36:46;;;;;;;;;42.25;36.00;;;;;;;;5045297;28;10610;-78
2024/03/20 08:39:13;;;;;;;;;46.75;40.50;;;;;;;;5046429;28;10832;-78
2024/03/20 08:41:40;;;;;;;;;48.50;40.75;;;;;;;;5046108;28;10899;-77
2024/03/20 08:44:08;;;;;;;;;47.75;40.75;;;;;;;;5046719;28;10647;-77
2024/03/20 08:46:41;;;;;;;;;52.00;43.25;;;;;;;;5049335;28;11287;-77
2024/03/20 08:49:10;;;;;;;;;43.25;37.50;;;;;;;;5050334;28;10525;-78
2024/03/20 08:51:40;;;;;;;;;50.50;41.00;;;;;;;;5050724;28;10368;-79
2024/03/20 08:54:07;;;;;;;;;53.25;41.50;;;;;;;;5050368;28;10345;-78
2024/03/20 08:56:34;;;;;;;;;48.25;38.75;;;;;;;;5050334;28;10297;-79
2024/03/20 08:59:01;;;;;;;;;50.50;41.25;;;;;;;;5049741;28;10197;-78
2024/03/20 09:01:28;;;;;;;;;47.50;39.50;;;;;;;;5050220;28;10189;-78
2024/03/20 09:03:55;;;;;;;;;39.00;33.00;;;;;;;;5049673;28;9944;-78
2024/03/20 09:06:21;;;;;;;;;33.75;31.50;;;;;;;;5050170;28;9881;-79
2024/03/20 09:08:51;;;;;;;;;38.75;35.00;;;;;;;;5050396;28;9795;-78
2024/03/20 09:11:18;;;;;;;;;38.25;34.25;;;;;;;;5050061;28;9789;-79
2024/03/20 09:13:45;;;;;;;;;38.25;33.25;;;;;;;;5050091;28;9633;-80
2024/03/20 09:16:11;;;;;;;;;36.33;32.33;;;;;;;;5049892;28;9513;-78
2024/03/20 09:18:39;;;;;;;;;30.33;30.33;;;;;;;;5050194;28;10233;-79
2024/03/20 09:21:05;;;;;;;;;37.75;34.25;;;;;;;;5051653;28;9318;-80
2024/03/20 09:23:32;;;;;;;;;33.00;31.67;;;;;;;;5051182;28;9581;-79
2024/03/20 09:26:00;;;;;;;;;37.00;34.00;;;;;;;;5052853;28;9467;-78
2024/03/20 09:28:27;;;;;;;;;33.25;32.25;;;;;;;;5053216;28;9505;-77
2024/03/20 09:30:53;;;;;;;;;33.00;32.00;;;;;;;;5052661;28;9471;-77
2024/03/20 09:33:21;;;;;;;;;40.00;34.67;;;;;;;;5052606;28;9174;-77
2024/03/20 09:35:47;;;;;;;;;41.00;35.00;;;;;;;;5054277;28;9107;-79
2024/03/20 09:38:14;;;;;;;;;29.33;29.33;;;;;;;;5051394;28;9321;-78
2024/03/20 09:40:41;;;;;;;;;34.50;31.00;;;;;;;;5051742;28;8968;-79
2024/03/20 09:43:10;;;;;;;;;31.00;30.75;;;;;;;;5050238;28;9040;-77
2024/03/20 09:45:36;;;;;;;;;31.00;30.25;;;;;;;;5051244;28;8843;-80
2024/03/20 09:48:03;;;;;;;;;34.75;32.25;;;;;;;;5049358;28;8847;-80
2024/03/20 09:50:30;;;;;;;;;31.00;29.25;;;;;;;;5048914;28;8973;-79
2024/03/20 09:53:00;;;;;;;;;27.00;27.00;;;;;;;;5049076;28;8969;-76
2024/03/20 09:55:27;;;;;;;;;26.25;26.25;;;;;;;;5048904;28;9728;-79
2024/03/20 09:57:57;;;;;;;;;21.50;21.50;;;;;;;;5046922;28;8863;-78
2024/03/20 10:00:25;;;;;;;;;26.00;24.25;;;;;;;;5048307;28;8969;-79
2024/03/20 10:02:53;;;;;;;;;23.50;22.25;;;;;;;;5049343;28;8874;-78
2024/03/20 10:05:20;;;;;;;;;26.75;25.50;;;;;;;;5049127;28;8847;-78
2024/03/20 10:07:49;;;;;;;;;25.75;22.00;;;;;;;;5049941;28;8862;-79
2024/03/20 10:10:17;;;;;;;;;22.50;22.00;;;;;;;;5050809;28;8849;-78
2024/03/20 10:12:47;;;;;;;;;17.25;17.25;;;;;;;;5052449;28;8858;-78
2024/03/20 10:15:13;;;;;;;;;17.50;17.50;;;;;;;;5051057;28;8985;-77
2024/03/20 10:17:45;;;;;;;;;19.50;19.50;;;;;;;;5049628;28;9609;-77
2024/03/20 10:20:14;;;;;;;;;18.25;18.25;;;;;;;;5048321;28;8977;-82
2024/03/20 10:22:42;;;;;;;;;17.75;16.50;;;;;;;;5049135;28;8853;-80
2024/03/20 10:25:09;;;;;;;;;13.25;13.25;;;;;;;;5048393;28;8858;-79
2024/03/20 10:27:38;;;;;;;;;10.25;10.25;;;;;;;;5048783;28;8860;-79
2024/03/20 10:30:11;;;;;;;;;18.00;14.75;;;;;;;;5047932;28;8866;-80
2024/03/20 10:32:43;;;;;;;;;15.50;13.00;;;;;;;;5048665;28;8858;-79
2024/03/20 10:35:13;;;;;;;;;13.80;12.20;;;;;;;;5046619;28;8862;-79
2024/03/20 10:37:43;;;;;;;;;14.80;14.00;;;;;;;;5048602;28;8861;-79
2024/03/20 10:40:14;;;;;;;;;12.00;12.00;;;;;;;;5048519;28;8866;-79
2024/03/20 10:42:44;;;;;;;;;14.20;12.40;;;;;;;;5048335;28;8863;-80
2024/03/20 10:45:11;;;;;;;;;15.60;14.40;;;;;;;;5040305;28;8985;-79
2024/03/20 10:47:39;;;;;;;;;11.20;9.60;;;;;;;;5048739;28;8866;-79
2024/03/20 10:50:14;;;;;;;;;11.00;11.00;;;;;;;;5047360;28;8869;-79
2024/03/20 10:52:41;;;;;;;;;11.00;10.80;;;;;;;;5048640;28;8888;-82
2024/03/20 10:55:12;;;;;;;;;10.80;10.40;;;;;;;;5050055;28;8862;-77
2024/03/20 10:57:41;;;;;;;;;7.60;7.60;;;;;;;;5050173;28;8956;-79
2024/03/20 11:00:15;;;;;;;;;7.80;7.80;;;;;;;;5050342;28;8943;-77
2024/03/20 11:02:42;;;;;;;;;21.25;20.75;;;;;;;;5052017;28;8849;-85
2024/03/20 11:05:37;;;;;;;;;18.20;18.00;;;;;;;;5052159;28;8864;-81
2024/03/20 11:08:07;;;;;;;;;15.20;11.40;;;;;;;;5045050;28;8870;-84
2024/03/20 11:10:35;;;;;;;;;17.60;16.40;;;;;;;;5054163;28;8874;-82
2024/03/20 11:13:03;;;;;;;;;16.20;16.20;;;;;;;;5057515;28;8948;-83
2024/03/20 11:15:30;;;;;;;;;11.40;11.40;;;;;;;;5057487;28;8846;-83
2024/03/20 11:17:59;;;;;;;;;7.40;7.40;;;;;;;;5056871;28;8965;-84
2024/03/20 11:20:45;;;;;;;;;17.20;15.60;;;;;;;;5057928;28;8965;-81
2024/03/20 11:23:27;;;;;;;;;8.20;8.20;;;;;;;;5056866;28;8857;-84
2024/03/20 11:26:00;;;;;;;;;30.75;29.50;;;;;;;;5058858;28;8861;-77
2024/03/20 11:28:27;;;;;;;;;9.20;8.60;;;;;;;;5057964;28;9613;-77
2024/03/20 11:30:54;;;;;;;;;7.20;6.60;;;;;;;;5048421;28;9580;-76
2024/03/20 11:33:21;;;;;;;;;8.60;8.20;;;;;;;;5046824;28;8855;-76
2024/03/20 11:35:49;;;;;;;;;7.80;7.80;;;;;;;;5049287;28;8864;-79
2024/03/20 11:38:19;;;;;;;;;3.40;3.40;;;;;;;;5052984;28;8863;-83
2024/03/20 11:40:45;;;;;;;;;8.20;8.20;;;;;;;;5049033;28;8865;-83
2024/03/20 11:43:12;;;;;;;;;5.20;5.20;;;;;;;;5037841;28;9586;-84
2024/03/20 11:45:38;;;;;;;;;7.00;5.40;;;;;;;;5047989;28;8862;-76
2024/03/20 11:48:16;;;;;;;;;15.20;15.20;;;;;;;;5054145;28;9637;-78
2024/03/20 11:50:42;;;;;;;;;6.40;5.60;;;;;;;;5054917;28;8957;-81
2024/03/20 11:53:22;;;;;;;;;4.60;4.60;;;;;;;;5055143;28;8869;-80
2024/03/20 11:55:51;;;;;;;;;5.20;5.20;;;;;;;;5055927;28;9637;-78
2024/03/20 11:58:19;;;;;;;;;5.20;4.80;;;;;;;;5052369;28;8870;-79
2024/03/20 12:00:46;;;;;;;;;4.20;4.20;;;;;;;;5049799;28;8799;-79
2024/03/20 12:03:24;;;;;;;;;5.40;4.00;;;;;;;;5049598;28;8851;-80
2024/03/20 12:06:07;;;;;;;;;6.00;4.00;;;;;;;;5048108;28;8873;-80
2024/03/20 12:08:36;;;;;;;;;5.60;4.00;;;;;;;;5047597;28;8862;-79
2024/03/20 12:11:14;;;;;;;;;4.00;4.00;;;;;;;;5048300;28;8972;-78
2024/03/20 12:13:41;;;;;;;;;5.20;5.20;;;;;;;;5047830;28;8831;-78
2024/03/20 12:16:08;;;;;;;;;3.60;3.60;;;;;;;;5047426;28;8973;-78
2024/03/20 12:18:37;;;;;;;;;4.00;4.00;;;;;;;;5047952;28;8878;-80
2024/03/20 12:21:04;;;;;;;;;5.00;5.00;;;;;;;;5049298;28;8874;-77
2024/03/20 12:23:32;;;;;;;;;4.20;4.20;;;;;;;;5050954;28;8884;-75
2024/03/20 12:26:00;;;;;;;;;5.00;5.00;;;;;;;;5051047;28;8854;-79
2024/03/20 12:28:27;;;;;;;;;5.60;5.60;;;;;;;;5051073;28;8892;-76
2024/03/20 12:30:55;;;;;;;;;3.00;3.00;;;;;;;;5050541;28;8787;-75
2024/03/20 12:33:22;;;;;;;;;4.00;4.00;;;;;;;;5050356;28;8850;-75
2024/03/20 12:35:49;;;;;;;;;3.60;3.60;;;;;;;;5051265;28;8870;-82
2024/03/20 12:38:17;;;;;;;;;2.00;2.00;;;;;;;;5049973;28;8858;-76
2024/03/20 12:40:44;;;;;;;;;4.20;2.40;;;;;;;;5051355;28;8843;-81
2024/03/20 12:43:14;;;;;;;;;4.40;3.60;;;;;;;;5051242;28;8876;-80
2024/03/20 12:45:41;;;;;;;;;6.20;4.60;;;;;;;;5051193;28;8985;-77
2024/03/20 12:48:12;;;;;;;;;1.40;1.40;;;;;;;;5051142;28;8827;-76
2024/03/20 12:50:39;;;;;;;;;2.00;2.00;;;;;;;;5051920;28;8877;-78
2024/03/20 12:53:09;;;;;;;;;1.60;1.20;;;;;;;;5053021;28;8889;-79
2024/03/20 12:55:35;;;;;;;;;1.00;1.00;;;;;;;;5054273;28;8838;-78
2024/03/20 12:58:03;;;;;;;;;1.60;1.60;;;;;;;;5054915;28;8839;-84
2024/03/20 13:00:33;;;;;;;;;1.40;1.40;;;;;;;;5055600;28;8782;-78
2024/03/20 13:03:04;;;;;;;;;1.00;1.00;;;;;;;;5055430;28;8931;-81
2024/03/20 13:05:42;;;;;;;;;1.60;1.60;;;;;;;;5057040;28;8873;-78
2024/03/20 13:08:13;;;;;;;;;2.00;2.00;;;;;;;;5048985;28;8842;-84
2024/03/20 13:10:39;;;;;;;;;2.00;2.00;;;;;;;;5056751;28;8877;-77
2024/03/20 13:13:08;;;;;;;;;1.60;1.60;;;;;;;;5056873;28;8878;-81
2024/03/20 13:15:40;;;;;;;;;1.00;1.00;;;;;;;;5055596;28;8866;-74
2024/03/20 13:18:32;;;;;;;;;0.20;0.20;;;;;;;;5052056;28;8862;-74
2024/03/20 13:21:05;;;;;;;;;3.60;3.60;;;;;;;;5052326;28;8858;-75
2024/03/20 13:23:33;;;;;;;;;6.00;6.00;;;;;;;;5054614;28;8862;-76
2024/03/20 13:25:59;;;;;;;;;1.00;1.00;;;;;;;;5052972;28;8965;-74
2024/03/20 13:28:31;;;;;;;;;1.00;1.00;;;;;;;;5051335;28;8866;-77
2024/03/20 13:31:00;;;;;;;;;0.40;0.40;;;;;;;;5049668;28;8920;-76
2024/03/20 13:33:28;;;;;;;;;1.60;1.60;;;;;;;;5028141;28;8966;-78
2024/03/20 13:35:57;;;;;;;;;0.00;0.00;;;;;;;;5045930;28;8846;-80
2024/03/20 13:38:27;;;;;;;;;0.40;0.40;;;;;;;;5046545;28;8814;-78
2024/03/20 13:41:12;;;;;;;;;0.40;0.40;;;;;;;;5049910;28;8857;-78
2024/03/20 13:44:00;;;;;;;;;0.00;0.00;;;;;;;;5044005;28;8854;-78
2024/03/20 13:46:28;;;;;;;;;1.00;1.00;;;;;;;;5050635;28;8881;-77
2024/03/20 13:48:58;;;;;;;;;0.20;0.20;;;;;;;;5053800;28;8854;-78
2024/03/20 13:51:25;;;;;;;;;12.60;12.60;;;;;;;;5053039;28;9630;-78
2024/03/20 13:53:53;;;;;;;;;5.40;5.40;;;;;;;;5050780;28;8850;-78
2024/03/20 13:56:22;;;;;;;;;7.60;7.60;;;;;;;;5049597;28;8850;-78
2024/03/20 13:58:50;;;;;;;;;9.20;9.00;;;;;;;;5049769;28;8843;-78
2024/03/20 14:01:18;;;;;;;;;6.40;5.40;;;;;;;;5049538;28;9632;-80
2024/03/20 14:03:48;;;;;;;;;8.60;6.80;;;;;;;;5050381;28;8839;-79
2024/03/20 14:06:16;;;;;;;;;10.80;8.40;;;;;;;;5049666;28;8839;-77
2024/03/20 14:08:44;;;;;;;;;9.20;7.60;;;;;;;;5049523;28;9603;-78
2024/03/20 14:11:12;;;;;;;;;3.20;3.20;;;;;;;;5049041;28;8865;-79
2024/03/20 14:13:39;;;;;;;;;23.80;18.60;;;;;;;;5048979;28;8858;-81
2024/03/20 14:16:11;;;;;;;;;3.40;3.40;;;;;;;;5049743;28;8941;-77
2024/03/20 14:18:38;;;;;;;;;7.40;6.20;;;;;;;;5049301;28;8849;-76
2024/03/20 14:21:10;;;;;;;;;2.60;2.60;;;;;;;;5049872;28;8879;-79
2024/03/20 14:23:37;;;;;;;;;8.60;6.40;;;;;;;;5049630;28;8929;-77
2024/03/20 14:26:04;;;;;;;;;3.00;3.00;;;;;;;;5049165;28;8835;-76
2024/03/20 14:28:31;;;;;;;;;3.20;3.20;;;;;;;;5049086;28;8961;-81
2024/03/20 14:30:57;;;;;;;;;10.60;10.60;;;;;;;;5048010;28;8817;-79
2024/03/20 14:33:24;;;;;;;;;4.80;4.60;;;;;;;;5049368;28;8853;-82
2024/03/20 14:35:51;;;;;;;;;14.20;10.80;;;;;;;;5050993;28;8831;-82
2024/03/20 14:38:35;;;;;;;;;2.40;2.40;;;;;;;;5049901;28;9001;-80